Time;durP1;ratioP1;P1;durP2;ratioP2;P2;SDS_P1;SDS_P2;PMS_P1;PMS_P2;Temp;Humidity;BMP_temperature;BMP_pressure;BME280_temperature;BME280_humidity;BME280_pressure;Samples;Min_cycle;Max_cycle;Signal;HPM_P1;HPM_P2
2022/03/28 00:01:25;;;;;;;22.50;13.93;;;;;;;10.02;92.19;100245.53;4991780;28;20717;-82
2022/03/28 00:03:52;;;;;;;16.92;13.73;;;;;;;10.03;92.38;100235.63;4992212;28;20194;-82
2022/03/28 00:06:18;;;;;;;17.83;13.90;;;;;;;10.08;92.03;100238.97;4991913;28;20196;-82
2022/03/28 00:08:46;;;;;;;19.70;14.23;;;;;;;10.09;91.56;100235.38;4995700;28;20207;-81
2022/03/28 00:11:13;;;;;;;17.83;13.38;;;;;;;9.98;92.61;100232.28;4995656;28;20225;-81
2022/03/28 00:13:40;;;;;;;18.95;13.70;;;;;;;10.05;92.20;100230.19;4995471;28;20190;-82
2022/03/28 00:16:06;;;;;;;18.38;14.23;;;;;;;10.07;91.86;100229.16;4995439;28;20282;-82
2022/03/28 00:18:33;;;;;;;20.70;14.27;;;;;;;9.86;93.54;100232.81;4995479;28;20650;-82
2022/03/28 00:21:00;;;;;;;18.25;13.98;;;;;;;9.97;92.69;100230.53;4995285;28;20188;-82
2022/03/28 00:23:27;;;;;;;19.42;13.35;;;;;;;10.14;91.05;100219.88;4995463;28;20301;-82
2022/03/28 00:25:55;;;;;;;18.90;14.65;;;;;;;10.01;91.59;100213.31;4995361;28;20215;-82
2022/03/28 00:28:21;;;;;;;19.10;13.43;;;;;;;9.94;92.87;100219.91;4995282;28;20198;-82
2022/03/28 00:30:48;;;;;;;18.88;14.10;;;;;;;10.09;91.86;100212.97;4995132;28;20233;-82
2022/03/28 00:33:15;;;;;;;17.90;13.90;;;;;;;9.75;94.27;100207.31;4995274;28;20190;-82
2022/03/28 00:35:41;;;;;;;19.55;13.90;;;;;;;9.48;96.43;100212.09;4994876;28;20199;-82
2022/03/28 00:38:09;;;;;;;18.80;13.18;;;;;;;9.38;98.27;100210.72;4995027;28;20622;-81
2022/03/28 00:40:36;;;;;;;20.92;13.50;;;;;;;9.45;97.74;100205.97;4995186;28;20536;-82
2022/03/28 00:43:07;;;;;;;16.58;13.68;;;;;;;9.37;98.93;100203.63;4994970;28;20215;-81
2022/03/28 00:45:34;;;;;;;24.42;13.27;;;;;;;9.31;98.89;100202.06;4995079;28;20293;-81
2022/03/28 00:48:02;;;;;;;22.23;14.23;;;;;;;9.37;98.76;100199.13;4994711;28;20189;-82
2022/03/28 00:50:29;;;;;;;18.80;13.32;;;;;;;9.52;97.05;100202.06;4994909;28;20215;-82
2022/03/28 00:52:57;;;;;;;16.50;13.95;;;;;;;9.54;97.10;100194.81;4995102;28;20216;-82
2022/03/28 00:55:24;;;;;;;17.02;12.95;;;;;;;9.48;97.40;100193.28;4995606;28;20205;-82
2022/03/28 00:57:50;;;;;;;16.33;13.65;;;;;;;9.24;99.26;100184.47;4994723;28;20211;-81
2022/03/28 01:00:19;;;;;;;19.83;13.20;;;;;;;9.24;99.94;100197.03;4994250;28;20212;-83
2022/03/28 01:02:46;;;;;;;17.20;13.63;;;;;;;9.17;100.00;100194.59;4994652;28;20281;-81
2022/03/28 01:05:14;;;;;;;17.52;12.55;;;;;;;9.05;100.00;100183.53;4994236;28;20215;-82
2022/03/28 01:07:41;;;;;;;19.52;13.10;;;;;;;9.18;100.00;100191.00;4994595;28;20611;-82
2022/03/28 01:10:09;;;;;;;18.98;13.38;;;;;;;9.14;100.00;100185.81;4994492;28;20210;-83
2022/03/28 01:12:36;;;;;;;15.25;12.93;;;;;;;9.11;100.00;100181.44;4994754;28;20206;-82
2022/03/28 01:15:04;;;;;;;17.88;12.15;;;;;;;9.07;100.00;100184.34;4994391;28;20803;-82
2022/03/28 01:20:16;;;;;;;15.32;12.93;;;;;;;8.94;100.00;100174.09;4993564;28;20233;-82
2022/03/28 01:22:44;;;;;;;21.98;12.73;;;;;;;8.80;100.00;100178.31;4993960;28;20209;-82
2022/03/28 01:25:11;;;;;;;22.15;13.60;;;;;;;8.87;100.00;100175.28;4994441;28;20195;-82
2022/03/28 01:27:40;;;;;;;20.05;12.23;;;;;;;8.79;100.00;100180.09;4993960;28;20205;-82
2022/03/28 01:30:08;;;;;;;20.75;12.13;;;;;;;8.91;100.00;100176.91;4994191;28;20743;-82
2022/03/28 01:32:35;;;;;;;15.85;13.05;;;;;;;8.93;100.00;100176.81;4993831;28;20248;-82
2022/03/28 01:35:01;;;;;;;16.20;11.73;;;;;;;8.81;100.00;100172.84;4993743;28;20201;-82
2022/03/28 01:37:28;;;;;;;15.63;11.13;;;;;;;8.81;100.00;100170.16;4993885;28;20223;-82
2022/03/28 01:39:56;;;;;;;15.98;12.23;;;;;;;8.97;100.00;100170.41;4993857;28;20190;-82
2022/03/28 01:42:22;;;;;;;21.88;13.40;;;;;;;8.82;100.00;100171.03;4993717;28;20239;-82
2022/03/28 01:44:52;;;;;;;17.58;12.50;;;;;;;8.72;100.00;100166.06;4993697;28;20200;-82
2022/03/28 01:47:19;;;;;;;20.25;12.80;;;;;;;8.63;100.00;100168.25;4993514;28;20186;-83
2022/03/28 01:49:45;;;;;;;18.85;12.82;;;;;;;8.72;100.00;100162.50;4993398;28;20189;-82
2022/03/28 01:52:12;;;;;;;17.30;11.95;;;;;;;8.72;100.00;100158.00;4993720;28;20295;-82
2022/03/28 01:54:38;;;;;;;16.20;12.13;;;;;;;8.61;100.00;100152.19;4993685;28;20186;-82
2022/03/28 01:57:11;;;;;;;19.48;13.30;;;;;;;8.67;100.00;100159.13;4993649;28;20190;-82
2022/03/28 01:59:37;;;;;;;15.60;11.68;;;;;;;8.71;100.00;100153.56;4993551;28;20545;-82
2022/03/28 02:02:04;;;;;;;17.60;12.52;;;;;;;8.48;100.00;100149.16;4992998;28;20322;-81
2022/03/28 02:04:32;;;;;;;19.98;12.55;;;;;;;8.35;100.00;100145.19;4993400;28;20291;-82
2022/03/28 02:06:58;;;;;;;14.85;11.85;;;;;;;8.24;100.00;100150.97;4993303;28;20673;-83
2022/03/28 02:09:25;;;;;;;15.63;12.30;;;;;;;8.45;100.00;100149.25;4993404;28;20189;-82
2022/03/28 02:11:52;;;;;;;20.20;13.35;;;;;;;8.36;100.00;100142.44;4993269;28;20208;-82
2022/03/28 02:14:20;;;;;;;19.02;12.45;;;;;;;8.40;100.00;100140.53;4993040;28;20286;-83
2022/03/28 02:16:46;;;;;;;17.48;12.50;;;;;;;8.47;100.00;100135.78;4992978;28;20194;-82
2022/03/28 02:19:13;;;;;;;17.17;12.75;;;;;;;8.41;100.00;100136.03;4992993;28;20188;-82
2022/03/28 02:21:39;;;;;;;20.13;12.85;;;;;;;8.46;100.00;100139.44;4992875;28;20205;-83
2022/03/28 02:24:06;;;;;;;17.02;12.48;;;;;;;8.40;100.00;100136.94;4992845;28;20192;-81
2022/03/28 02:26:33;;;;;;;17.08;11.55;;;;;;;8.34;100.00;100136.28;4993176;28;20217;-82
2022/03/28 02:29:00;;;;;;;16.88;12.70;;;;;;;8.42;100.00;100138.66;4993051;28;20205;-82
2022/03/28 02:31:28;;;;;;;14.32;11.95;;;;;;;8.35;100.00;100131.78;4992228;28;20570;-82
2022/03/28 02:33:54;;;;;;;13.80;11.75;;;;;;;8.48;100.00;100125.00;4992944;28;20653;-82
2022/03/28 02:36:21;;;;;;;14.25;11.10;;;;;;;8.25;100.00;100125.00;4993068;28;20640;-82
2022/03/28 02:38:47;;;;;;;17.05;12.55;;;;;;;8.21;100.00;100132.34;4992890;28;20259;-82
2022/03/28 02:41:14;;;;;;;17.27;12.32;;;;;;;7.92;100.00;100130.78;4992888;28;20210;-82
2022/03/28 02:43:41;;;;;;;15.73;12.10;;;;;;;7.90;100.00;100122.81;4992691;28;20195;-82
2022/03/28 02:46:07;;;;;;;15.75;11.57;;;;;;;7.96;100.00;100128.84;4992706;28;20177;-82
2022/03/28 02:48:35;;;;;;;18.73;12.32;;;;;;;7.98;100.00;100127.84;4992786;28;20201;-81
2022/03/28 02:51:02;;;;;;;17.48;12.40;;;;;;;7.97;100.00;100125.25;4992800;28;20302;-82
2022/03/28 02:53:28;;;;;;;18.48;12.38;;;;;;;7.93;100.00;100125.34;4992589;28;20668;-82
2022/03/28 02:55:55;;;;;;;17.48;11.52;;;;;;;7.91;100.00;100126.34;4992687;28;20197;-83
2022/03/28 02:58:22;;;;;;;17.35;12.85;;;;;;;7.83;100.00;100125.78;4992652;28;20215;-82
2022/03/28 03:00:48;;;;;;;14.05;11.63;;;;;;;7.86;100.00;100122.97;4992483;28;20282;-82
2022/03/28 03:03:15;;;;;;;20.08;13.57;;;;;;;7.88;100.00;100121.97;4992445;28;20179;-83
2022/03/28 03:05:43;;;;;;;15.77;12.20;;;;;;;7.99;100.00;100121.56;4992403;28;20654;-82
2022/03/28 03:08:10;;;;;;;16.02;11.90;;;;;;;7.84;100.00;100122.16;4992706;28;20195;-83
2022/03/28 03:10:37;;;;;;;16.88;12.48;;;;;;;7.78;100.00;100117.91;4992180;28;20706;-83
2022/03/28 03:13:03;;;;;;;19.58;12.25;;;;;;;7.74;100.00;100121.66;4992521;28;20618;-82
2022/03/28 03:15:30;;;;;;;18.55;11.75;;;;;;;7.50;100.00;100126.13;4992373;28;20203;-81
2022/03/28 03:17:56;;;;;;;17.73;11.98;;;;;;;7.47;100.00;100124.44;4992104;28;20199;-83
2022/03/28 03:20:23;;;;;;;19.45;12.38;;;;;;;7.41;100.00;100121.97;4992535;28;20550;-82
2022/03/28 03:22:51;;;;;;;15.10;11.25;;;;;;;7.28;100.00;100118.88;4991963;28;20203;-83
2022/03/28 03:25:18;;;;;;;16.38;11.77;;;;;;;7.36;100.00;100125.75;4991262;28;20324;-82
2022/03/28 03:27:44;;;;;;;18.15;13.00;;;;;;;7.56;100.00;100120.53;4992425;28;20194;-82
2022/03/28 03:30:12;;;;;;;18.00;13.10;;;;;;;7.58;100.00;100118.69;4991841;28;20249;-82
2022/03/28 03:32:39;;;;;;;17.02;11.73;;;;;;;7.56;100.00;100117.00;4992337;28;20543;-82
2022/03/28 03:35:07;;;;;;;18.10;12.23;;;;;;;7.56;100.00;100111.63;4991981;28;20204;-82
2022/03/28 03:37:33;;;;;;;18.48;12.07;;;;;;;7.44;100.00;100116.50;4992309;28;20190;-82
2022/03/28 03:40:01;;;;;;;17.90;11.95;;;;;;;7.26;100.00;100115.38;4992265;28;20539;-82
2022/03/28 03:42:28;;;;;;;18.67;11.93;;;;;;;7.27;100.00;100114.44;4993505;28;20206;-82
2022/03/28 03:44:54;;;;;;;17.27;12.55;;;;;;;7.23;100.00;100117.28;4996000;28;20187;-82
2022/03/28 03:47:21;;;;;;;22.33;12.85;;;;;;;7.21;100.00;100113.78;4995735;28;20552;-82
2022/03/28 03:49:48;;;;;;;18.50;13.70;;;;;;;7.10;100.00;100117.72;4995660;28;20191;-82
2022/03/28 03:52:15;;;;;;;17.70;13.32;;;;;;;7.12;100.00;100108.75;4995416;28;20333;-82
2022/03/28 03:54:41;;;;;;;17.38;13.35;;;;;;;7.21;100.00;100119.13;4995643;28;20208;-82
2022/03/28 03:57:09;;;;;;;19.23;13.32;;;;;;;7.21;100.00;100120.03;4995795;28;20202;-82
2022/03/28 03:59:36;;;;;;;17.88;13.40;;;;;;;7.25;100.00;100115.44;4995473;28;20203;-82
2022/03/28 04:02:03;;;;;;;21.52;14.75;;;;;;;7.28;100.00;100115.31;4995364;28;20277;-83
2022/03/28 04:04:29;;;;;;;19.77;13.15;;;;;;;7.40;100.00;100114.88;4995744;28;20194;-83
2022/03/28 04:06:57;;;;;;;19.35;12.25;;;;;;;7.26;100.00;100115.38;4995591;28;20278;-82
2022/03/28 04:09:24;;;;;;;20.88;14.23;;;;;;;7.30;100.00;100109.00;4995519;28;20180;-81
2022/03/28 04:11:50;;;;;;;20.70;13.63;;;;;;;7.22;100.00;100108.38;4995115;28;20211;-81
2022/03/28 04:14:18;;;;;;;19.00;13.48;;;;;;;7.42;100.00;100101.44;4995545;28;20279;-82
2022/03/28 04:16:45;;;;;;;16.02;12.40;;;;;;;7.23;100.00;100107.44;4995294;28;20199;-82
2022/03/28 04:19:12;;;;;;;18.45;12.07;;;;;;;7.25;100.00;100115.44;4995236;28;20288;-83
2022/03/28 04:21:39;;;;;;;21.52;14.02;;;;;;;7.35;100.00;100105.25;4994495;28;20207;-82
2022/03/28 04:24:06;;;;;;;17.75;13.68;;;;;;;7.29;100.00;100115.25;4995030;28;20187;-83
2022/03/28 04:26:33;;;;;;;21.25;13.60;;;;;;;7.38;100.00;100102.47;4995424;28;20185;-82
2022/03/28 04:29:00;;;;;;;21.35;13.52;;;;;;;7.46;100.00;100100.34;4995187;28;20648;-82
2022/03/28 04:31:27;;;;;;;19.90;12.93;;;;;;;7.24;100.00;100097.63;4995101;28;20211;-83
2022/03/28 04:33:54;;;;;;;26.70;14.48;;;;;;;7.32;100.00;100096.38;4995033;28;20217;-82
2022/03/28 04:36:22;;;;;;;24.50;14.85;;;;;;;7.32;100.00;100095.50;4994718;28;20202;-83
2022/03/28 04:38:48;;;;;;;20.50;13.93;;;;;;;7.34;100.00;100101.69;4994772;28;20192;-83
2022/03/28 04:41:15;;;;;;;22.92;14.50;;;;;;;7.34;100.00;100099.00;4995129;28;20537;-82
2022/03/28 04:43:41;;;;;;;19.70;13.88;;;;;;;7.18;100.00;100098.69;4994693;28;20199;-82
2022/03/28 04:46:08;;;;;;;19.77;14.02;;;;;;;7.00;100.00;100104.72;4994678;28;20194;-82
2022/03/28 04:48:36;;;;;;;27.70;14.88;;;;;;;7.12;100.00;100106.06;4995304;28;20674;-82
2022/03/28 04:51:02;;;;;;;20.58;13.73;;;;;;;7.29;100.00;100093.81;4994532;28;20217;-83
2022/03/28 04:53:29;;;;;;;20.90;14.00;;;;;;;7.14;100.00;100104.22;4993915;28;20191;-83
2022/03/28 04:55:55;;;;;;;21.63;14.52;;;;;;;7.22;100.00;100096.78;4994709;28;20214;-84
2022/03/28 04:58:22;;;;;;;18.83;13.57;;;;;;;7.04;100.00;100101.00;4995058;28;20278;-82
2022/03/28 05:00:50;;;;;;;22.77;14.43;;;;;;;6.97;100.00;100104.84;4995332;28;20721;-83
2022/03/28 05:03:20;;;;;;;23.42;15.10;;;;;;;6.78;100.00;100105.44;4994193;28;20198;-83
2022/03/28 05:05:48;;;;;;;19.02;14.05;;;;;;;6.87;100.00;100105.16;4993933;28;20247;-83
2022/03/28 05:08:15;;;;;;;20.52;13.90;;;;;;;7.07;100.00;100106.25;4994399;28;20640;-82
2022/03/28 05:10:43;;;;;;;24.42;16.40;;;;;;;7.00;100.00;100104.72;4994284;28;20218;-82
2022/03/28 05:13:09;;;;;;;26.98;16.08;;;;;;;6.98;100.00;100110.13;4994246;28;20186;-83
2022/03/28 05:15:36;;;;;;;25.27;16.70;;;;;;;7.02;100.00;100100.19;4994129;28;20239;-82
2022/03/28 05:18:03;;;;;;;22.27;14.20;;;;;;;7.06;100.00;100108.06;4993201;28;20215;-83
2022/03/28 05:20:30;;;;;;;27.95;16.75;;;;;;;6.93;100.00;100100.50;5011310;28;20194;-82
2022/03/28 05:22:58;;;;;;;23.52;14.60;;;;;;;6.96;100.00;100097.72;5010079;28;20278;-83
2022/03/28 05:25:24;;;;;;;25.02;16.92;;;;;;;6.98;100.00;100101.22;4994204;28;20617;-82
2022/03/28 05:27:51;;;;;;;28.55;16.40;;;;;;;7.14;100.00;100105.09;4993207;28;20199;-83
2022/03/28 05:30:18;;;;;;;30.10;17.05;;;;;;;7.18;100.00;100098.69;4993946;28;20207;-82
2022/03/28 05:32:45;;;;;;;27.00;16.73;;;;;;;7.09;100.00;100102.56;4995131;28;20266;-83
2022/03/28 05:35:11;;;;;;;28.30;15.23;;;;;;;7.14;100.00;100099.72;4994664;28;20198;-83
2022/03/28 05:37:38;;;;;;;23.60;14.82;;;;;;;7.16;100.00;100095.19;4993998;28;20194;-82
2022/03/28 05:40:10;;;;;;;23.60;15.55;;;;;;;7.07;100.00;100088.38;4994141;28;20196;-84
2022/03/28 05:42:36;;;;;;;27.08;15.88;;;;;;;7.06;100.00;100101.84;4994979;28;20650;-83
2022/03/28 05:45:04;;;;;;;33.90;17.63;;;;;;;7.11;100.00;100097.19;4995043;28;20668;-83
2022/03/28 05:47:30;;;;;;;27.08;17.42;;;;;;;7.12;100.00;100098.91;4994598;28;20210;-83
2022/03/28 05:49:57;;;;;;;24.77;16.50;;;;;;;7.00;100.00;100099.38;4999237;28;20231;-81
2022/03/28 05:52:24;;;;;;;23.38;15.70;;;;;;;7.04;100.00;100095.66;4994143;28;20219;-82
2022/03/28 05:54:51;;;;;;;23.70;16.15;;;;;;;7.10;100.00;100098.13;4994177;28;20278;-81
2022/03/28 05:57:19;;;;;;;21.65;15.57;;;;;;;6.99;100.00;100094.94;4994492;28;20191;-84
2022/03/28 05:59:46;;;;;;;24.98;16.45;;;;;;;7.07;100.00;100090.19;5001037;28;20642;-81
2022/03/28 06:02:12;;;;;;;24.25;17.40;;;;;;;7.10;100.00;100093.63;4994717;28;20238;-84
2022/03/28 06:04:39;;;;;;;28.25;17.23;;;;;;;7.24;100.00;100097.63;4993089;28;20195;-82
2022/03/28 06:07:06;;;;;;;24.35;16.30;;;;;;;7.30;100.00;100098.28;4993579;28;20199;-81
2022/03/28 06:09:32;;;;;;;27.60;17.95;;;;;;;7.28;100.00;100094.78;4993563;28;20200;-82
2022/03/28 06:11:59;;;;;;;24.98;18.75;;;;;;;7.43;100.00;100109.38;4994216;28;20211;-82
2022/03/28 06:14:27;;;;;;;28.98;17.67;;;;;;;7.47;100.00;100105.66;4994235;28;20188;-81
2022/03/28 06:16:53;;;;;;;29.45;18.48;;;;;;;7.35;100.00;100099.88;4993474;28;20206;-82
2022/03/28 06:19:20;;;;;;;25.00;17.20;;;;;;;7.38;100.00;100106.00;4992845;28;20573;-81
2022/03/28 06:21:46;;;;;;;23.83;17.83;;;;;;;7.38;100.00;100107.81;4986208;28;20552;-82
2022/03/28 06:24:13;;;;;;;27.67;18.30;;;;;;;7.39;100.00;100112.25;4995085;28;20263;-83
2022/03/28 06:26:40;;;;;;;27.63;19.60;;;;;;;7.58;100.00;100105.28;4997046;28;20194;-84
2022/03/28 06:29:09;;;;;;;26.48;17.75;;;;;;;7.55;100.00;100094.66;4991450;28;20274;-85
2022/03/28 06:31:37;;;;;;;30.70;19.23;;;;;;;7.59;100.00;100098.97;4993132;28;20226;-82
2022/03/28 06:34:03;;;;;;;28.50;19.02;;;;;;;7.55;100.00;100093.78;4992071;28;20205;-82
2022/03/28 06:36:30;;;;;;;24.63;18.88;;;;;;;7.58;100.00;100091.88;4992519;28;20188;-82
2022/03/28 06:39:00;;;;;;;27.48;17.40;;;;;;;7.66;100.00;100095.13;4992663;28;20659;-83
2022/03/28 06:41:27;;;;;;;30.92;19.38;;;;;;;7.93;100.00;100095.00;4993033;28;20732;-83
2022/03/28 06:43:53;;;;;;;24.23;19.50;;;;;;;8.12;100.00;100093.34;4992228;28;20209;-83
2022/03/28 06:46:20;;;;;;;28.25;18.05;;;;;;;8.26;100.00;100089.22;4992516;28;20199;-83
2022/03/28 06:48:52;;;;;;;29.02;18.60;;;;;;;8.30;100.00;100085.47;4992406;28;20196;-84
2022/03/28 06:51:19;;;;;;;28.50;20.40;;;;;;;8.48;100.00;100087.44;4992448;28;20283;-83
2022/03/28 06:53:49;;;;;;;34.00;20.27;;;;;;;8.56;100.00;100095.16;4992628;28;20209;-83
2022/03/28 06:56:16;;;;;;;29.55;19.13;;;;;;;8.62;100.00;100096.72;4992208;28;20262;-84
2022/03/28 06:58:43;;;;;;;27.10;18.27;;;;;;;8.71;100.00;100094.50;4993637;28;20204;-83
2022/03/28 07:01:10;;;;;;;34.20;19.35;;;;;;;8.75;100.00;100097.91;4991580;28;20224;-83
2022/03/28 07:03:37;;;;;;;27.75;18.05;;;;;;;8.65;100.00;100088.53;4992341;28;20235;-82
2022/03/28 07:06:05;;;;;;;27.73;20.13;;;;;;;8.66;100.00;100093.84;4992189;28;20211;-84
2022/03/28 07:08:32;;;;;;;29.98;20.42;;;;;;;8.75;100.00;100085.38;4992885;28;20548;-83
2022/03/28 07:10:59;;;;;;;33.25;18.48;;;;;;;9.03;100.00;100092.25;4992435;28;20213;-83
2022/03/28 07:13:26;;;;;;;29.92;19.30;;;;;;;9.23;100.00;100087.81;4991963;28;20231;-83
2022/03/28 07:15:53;;;;;;;31.13;20.58;;;;;;;9.28;100.00;100092.03;4991918;28;20185;-83
2022/03/28 07:18:19;;;;;;;33.83;23.05;;;;;;;9.47;100.00;100080.44;4991984;28;20557;-84
2022/03/28 07:20:46;;;;;;;32.67;20.45;;;;;;;9.68;100.00;100081.25;4992733;28;20197;-83
2022/03/28 07:23:14;;;;;;;24.30;18.50;;;;;;;9.81;97.56;100080.63;4992361;28;20189;-83
2022/03/28 07:25:41;;;;;;;25.98;19.33;;;;;;;9.80;95.14;100083.38;4992184;28;20671;-84
2022/03/28 07:28:09;;;;;;;28.85;19.55;;;;;;;9.91;94.84;100080.19;4992242;28;20639;-83
2022/03/28 07:30:36;;;;;;;31.25;21.73;;;;;;;10.10;93.60;100082.84;4992095;28;20193;-83
2022/03/28 07:33:03;;;;;;;32.15;22.55;;;;;;;10.51;90.61;100090.75;4991745;28;20226;-83
2022/03/28 07:35:31;;;;;;;26.50;19.40;;;;;;;10.48;89.76;100090.91;4992071;28;20596;-83
2022/03/28 07:37:58;;;;;;;27.13;20.33;;;;;;;10.66;89.02;100097.19;4991901;28;20197;-84
2022/03/28 07:40:27;;;;;;;24.88;18.70;;;;;;;10.84;87.08;100090.84;4991907;28;20679;-83
2022/03/28 07:42:53;;;;;;;34.53;20.90;;;;;;;11.07;84.98;100089.66;4992332;28;20187;-83
2022/03/28 07:45:23;;;;;;;32.10;20.83;;;;;;;11.17;84.90;100087.34;4992185;28;20188;-83
2022/03/28 07:47:50;;;;;;;31.25;19.90;;;;;;;11.13;85.59;100080.41;4991783;28;20203;-83
2022/03/28 07:50:16;;;;;;;25.80;19.77;;;;;;;11.27;84.59;100080.53;4991941;28;20191;-83
2022/03/28 07:52:43;;;;;;;26.63;20.38;;;;;;;11.27;84.78;100069.75;4991925;28;20598;-83
2022/03/28 07:55:11;;;;;;;29.67;20.70;;;;;;;11.47;83.59;100068.66;4991846;28;20234;-84
2022/03/28 07:57:40;;;;;;;29.15;20.40;;;;;;;11.68;82.72;100069.31;4991736;28;20200;-83
2022/03/28 08:00:10;;;;;;;30.80;20.83;;;;;;;11.84;82.40;100062.09;4991698;28;20230;-83
2022/03/28 08:02:37;;;;;;;28.20;20.10;;;;;;;12.03;82.00;100064.69;4991652;28;20321;-83
2022/03/28 08:05:04;;;;;;;30.23;22.83;;;;;;;12.20;81.83;100057.44;4991432;28;20210;-83
2022/03/28 08:07:31;;;;;;;28.13;20.15;;;;;;;12.36;81.44;100050.19;4991837;28;20191;-83
2022/03/28 08:09:58;;;;;;;25.50;19.95;;;;;;;12.55;79.94;100065.31;4991685;28;20188;-83
2022/03/28 08:12:25;;;;;;;30.52;24.08;;;;;;;12.59;80.53;100056.06;4991577;28;20258;-83
2022/03/28 08:14:53;;;;;;;27.13;18.85;;;;;;;12.66;80.48;100057.44;4991572;28;20217;-83
2022/03/28 08:17:20;;;;;;;27.92;20.85;;;;;;;12.59;81.40;100056.06;4991743;28;20206;-83
2022/03/28 08:19:47;;;;;;;27.48;19.95;;;;;;;12.76;80.59;100042.44;4991554;28;20203;-83
2022/03/28 08:22:14;;;;;;;26.63;18.35;;;;;;;12.96;79.45;100048.44;4991973;28;20203;-83
2022/03/28 08:24:41;;;;;;;29.45;18.63;;;;;;;13.07;78.82;100044.16;4991944;28;20655;-83
2022/03/28 08:27:08;;;;;;;29.38;21.73;;;;;;;13.25;77.26;100043.94;4991939;28;20648;-83
2022/03/28 08:29:34;;;;;;;31.23;21.33;;;;;;;13.36;77.31;100044.19;4993982;28;20275;-83
2022/03/28 08:32:04;;;;;;;28.73;20.48;;;;;;;13.50;76.13;100040.59;4995537;28;20209;-83
2022/03/28 08:34:31;;;;;;;35.38;19.15;;;;;;;13.61;75.36;100046.22;4995265;28;20219;-83
2022/03/28 08:36:57;;;;;;;24.50;20.40;;;;;;;13.61;76.25;100034.53;4995231;28;20184;-83
2022/03/28 08:39:24;;;;;;;28.65;21.92;;;;;;;13.56;77.35;100032.97;4995324;28;20189;-82
2022/03/28 08:41:50;;;;;;;24.42;18.98;;;;;;;13.73;77.32;100026.50;4994909;28;20308;-81
2022/03/28 08:44:19;;;;;;;30.17;21.25;;;;;;;13.93;76.40;100024.34;4995052;28;20275;-82
2022/03/28 08:46:48;;;;;;;26.25;18.98;;;;;;;14.09;75.86;100016.09;4994678;28;20204;-83
2022/03/28 08:49:19;;;;;;;27.55;19.23;;;;;;;14.36;74.71;100019.66;4994981;28;20304;-83
2022/03/28 08:51:46;;;;;;;30.38;19.35;;;;;;;14.41;74.09;100015.78;4995335;28;20196;-83
2022/03/28 08:54:15;;;;;;;27.25;17.83;;;;;;;14.27;74.74;100017.56;4995173;28;20217;-83
2022/03/28 08:56:42;;;;;;;28.17;18.65;;;;;;;14.59;72.38;100018.13;4995126;28;20336;-84
2022/03/28 08:59:08;;;;;;;25.95;16.60;;;;;;;14.79;69.95;100016.78;4994863;28;20534;-83
2022/03/28 09:01:36;;;;;;;21.63;17.05;;;;;;;14.97;68.01;100019.19;4994793;28;20601;-82
2022/03/28 09:04:07;;;;;;;24.35;17.98;;;;;;;15.14;66.85;100012.56;4995109;28;20213;-83
2022/03/28 09:06:37;;;;;;;21.85;17.02;;;;;;;15.32;65.55;100011.25;4994865;28;20280;-85
2022/03/28 09:09:12;;;;;;;22.05;16.00;;;;;;;15.15;66.45;100007.03;4995323;28;20281;-83
2022/03/28 09:11:39;;;;;;;28.13;17.10;;;;;;;15.20;66.61;100002.16;4994177;28;20331;-84
2022/03/28 09:14:06;;;;;;;23.70;15.80;;;;;;;15.31;64.86;99998.69;4991943;28;20276;-84
2022/03/28 09:16:34;;;;;;;24.02;16.48;;;;;;;15.56;60.69;99996.91;4994397;28;20285;-84
2022/03/28 09:19:08;;;;;;;22.40;16.55;;;;;;;15.86;58.40;99996.53;4995077;28;20205;-84
2022/03/28 09:21:36;;;;;;;22.67;15.32;;;;;;;15.84;56.82;99995.78;4994975;28;20238;-82
2022/03/28 09:24:05;;;;;;;22.30;14.68;;;;;;;16.00;55.00;99993.66;4995058;28;20238;-83
2022/03/28 09:26:32;;;;;;;22.70;14.98;;;;;;;16.24;54.96;99987.38;4994910;28;20188;-83
2022/03/28 09:29:00;;;;;;;28.08;16.60;;;;;;;16.51;53.75;99986.25;4994707;28;20286;-83
2022/03/28 09:31:30;;;;;;;19.40;13.55;;;;;;;16.63;49.91;99980.75;4994514;28;20188;-84
2022/03/28 09:34:15;;;;;;;20.98;14.32;;;;;;;16.59;49.75;99992.81;4994681;28;20222;-83
2022/03/28 09:36:49;;;;;;;18.60;13.80;;;;;;;16.65;49.65;99981.50;4994546;28;20198;-83
2022/03/28 09:39:18;;;;;;;22.55;14.43;;;;;;;16.86;49.86;99978.97;4994710;28;20182;-83
2022/03/28 09:41:59;;;;;;;25.55;14.90;;;;;;;17.09;49.95;99977.19;4994190;28;20191;-83
2022/03/28 09:44:37;;;;;;;20.25;13.15;;;;;;;17.24;49.33;99976.94;4994498;28;20187;-84
2022/03/28 09:47:07;;;;;;;20.08;15.05;;;;;;;17.20;49.58;99970.00;4994882;28;20220;-83
2022/03/28 09:49:34;;;;;;;19.45;13.70;;;;;;;17.51;48.40;99969.28;4993795;28;20267;-82
2022/03/28 09:52:08;;;;;;;20.63;14.23;;;;;;;17.59;48.41;99959.59;4994443;28;20290;-83
2022/03/28 09:54:51;;;;;;;18.85;13.82;;;;;;;17.37;48.97;99965.94;4994442;28;20198;-83
2022/03/28 09:57:21;;;;;;;24.38;14.65;;;;;;;17.33;49.54;99959.88;4994195;28;20191;-83
2022/03/28 09:59:48;;;;;;;24.13;14.77;;;;;;;17.70;48.08;99956.88;4993610;28;20192;-85
2022/03/28 10:02:16;;;;;;;23.90;15.10;;;;;;;17.92;46.64;99951.41;4994244;28;20272;-83
2022/03/28 10:04:45;;;;;;;22.70;13.75;;;;;;;18.19;46.10;99951.97;4994768;28;20618;-82
2022/03/28 10:07:14;;;;;;;19.17;12.68;;;;;;;18.18;44.84;99945.66;4994097;28;20202;-82
2022/03/28 10:09:41;;;;;;;22.75;14.45;;;;;;;18.07;45.13;99940.25;4993598;28;20194;-83
2022/03/28 10:12:08;;;;;;;21.33;13.50;;;;;;;17.73;45.36;99940.28;4994223;28;20180;-85
2022/03/28 10:14:35;;;;;;;25.02;14.18;;;;;;;18.16;44.24;99942.19;4993910;28;20223;-84
2022/03/28 10:17:02;;;;;;;21.15;13.10;;;;;;;18.33;43.63;99930.69;4993739;28;20206;-83
2022/03/28 10:19:31;;;;;;;20.20;12.65;;;;;;;18.49;43.35;99929.41;4993870;28;20332;-83
2022/03/28 10:21:59;;;;;;;21.48;13.88;;;;;;;18.73;42.94;99918.22;4994394;28;20212;-83
2022/03/28 10:24:29;;;;;;;31.60;15.77;;;;;;;18.88;43.15;99916.03;4994196;28;20236;-83
2022/03/28 10:26:58;;;;;;;17.45;13.05;;;;;;;18.89;41.93;99915.91;4993022;28;20227;-84
2022/03/28 10:29:35;;;;;;;21.20;14.55;;;;;;;19.16;41.50;99907.16;4994400;28;20184;-83
2022/03/28 10:32:04;;;;;;;21.05;13.02;;;;;;;19.18;41.44;99898.84;4993198;28;20210;-84
2022/03/28 10:34:44;;;;;;;21.25;12.50;;;;;;;19.17;41.18;99900.72;4994305;28;20229;-84
2022/03/28 10:37:25;;;;;;;17.58;12.35;;;;;;;19.28;41.14;99893.41;4994096;28;20646;-84
2022/03/28 10:40:16;;;;;;;17.45;12.25;;;;;;;19.31;40.88;99884.94;4995021;28;20193;-83
2022/03/28 10:42:47;;;;;;;23.45;15.65;;;;;;;19.24;40.71;99883.75;4993573;28;20268;-85
2022/03/28 10:45:19;;;;;;;19.05;13.40;;;;;;;19.20;40.96;99876.84;4993522;28;20186;-85
2022/03/28 10:47:47;;;;;;;19.08;12.40;;;;;;;18.89;41.26;99874.13;4983964;28;20221;-84
2022/03/28 10:50:18;;;;;;;20.08;12.20;;;;;;;19.09;41.00;99869.66;4987379;28;20278;-83
2022/03/28 10:53:15;;;;;;;19.20;12.15;;;;;;;19.26;40.82;99865.38;4982655;28;20272;-85
2022/03/28 10:55:48;;;;;;;21.05;13.55;;;;;;;19.41;40.38;99866.72;4993655;28;20190;-84
2022/03/28 10:58:24;;;;;;;19.65;12.20;;;;;;;19.57;40.17;99868.94;4986099;28;20190;-85
2022/03/28 11:01:29;;;;;;;24.23;13.60;;;;;;;19.72;39.67;99859.34;4978084;28;20230;-84
2022/03/28 11:04:01;;;;;;;17.77;12.55;;;;;;;19.78;39.44;99864.22;4993169;28;20205;-84
2022/03/28 11:07:00;;;;;;;23.75;14.18;;;;;;;19.76;39.40;99857.19;4985167;28;20230;-85
2022/03/28 11:09:44;;;;;;;20.05;13.80;;;;;;;19.85;38.88;99856.34;4986458;28;20192;-83
2022/03/28 11:12:15;;;;;;;21.27;13.90;;;;;;;19.92;38.62;99846.59;4986117;28;20221;-84
2022/03/28 11:14:51;;;;;;;21.40;12.77;;;;;;;20.02;38.16;99841.13;4979272;28;20206;-86
2022/03/28 11:17:20;;;;;;;18.58;12.48;;;;;;;19.97;38.23;99843.44;4992903;28;20275;-85
2022/03/28 11:20:08;;;;;;;20.73;13.18;;;;;;;19.85;38.36;99841.81;4983601;28;20206;-84